Time;durP1;ratioP1;P1;durP2;ratioP2;P2;SDS_P1;SDS_P2;PMS_P1;PMS_P2;Temp;Humidity;BMP_temperature;BMP_pressure;BME280_temperature;BME280_humidity;BME280_pressure;Samples;Min_cycle;Max_cycle;Signal;HPM_P1;HPM_P2
2022/12/21 00:01:59;;;;;;;44.40;25.40;;;5.40;99.90;;;;;;5059069;28;20100;-90
2022/12/21 00:04:26;;;;;;;41.97;24.85;;;5.40;99.90;;;;;;5051591;28;20431;-90
2022/12/21 00:06:52;;;;;;;47.13;25.35;;;5.30;99.90;;;;;;5035338;28;20112;-90
2022/12/21 00:09:18;;;;;;;42.17;26.65;;;5.30;99.90;;;;;;5026035;28;20121;-90
2022/12/21 00:11:43;;;;;;;43.70;25.52;;;5.30;99.90;;;;;;5047334;28;20516;-90
2022/12/21 00:14:09;;;;;;;46.38;25.10;;;5.30;99.90;;;;;;5049708;28;20166;-90
2022/12/21 00:16:37;;;;;;;42.38;23.83;;;5.30;99.90;;;;;;5045383;28;20037;-90
2022/12/21 00:19:06;;;;;;;38.28;23.35;;;5.40;99.90;;;;;;5048632;28;20082;-90
2022/12/21 00:21:36;;;;;;;43.20;23.27;;;5.50;99.90;;;;;;5046070;28;20108;-90
2022/12/21 00:24:02;;;;;;;35.70;22.45;;;5.60;99.90;;;;;;5048596;28;20021;-91
2022/12/21 00:26:56;;;;;;;38.03;22.52;;;5.70;99.90;;;;;;5029427;28;20023;-90
2022/12/21 00:29:22;;;;;;;41.95;23.05;;;5.80;99.90;;;;;;5028552;28;20037;-91
2022/12/21 00:31:48;;;;;;;50.03;25.98;;;5.80;99.90;;;;;;5054578;28;20032;-90
2022/12/21 00:34:17;;;;;;;48.75;28.17;;;5.80;99.90;;;;;;5048517;28;20039;-90
2022/12/21 00:36:43;;;;;;;53.13;28.63;;;5.80;99.90;;;;;;5045545;28;20123;-90
2022/12/21 00:39:14;;;;;;;49.53;27.30;;;5.70;99.90;;;;;;5028460;28;20027;-90
2022/12/21 00:41:42;;;;;;;;;;;5.60;99.90;;;;;;5065151;28;20017;-90
2022/12/21 00:44:09;;;;;;;46.65;28.02;;;5.50;99.90;;;;;;5042639;28;19909;-91
2022/12/21 00:46:35;;;;;;;50.95;29.85;;;5.40;99.90;;;;;;5029065;28;20021;-91
2022/12/21 00:49:04;;;;;;;58.35;30.13;;;5.40;99.90;;;;;;5046016;28;20037;-91
2022/12/21 00:51:31;;;;;;;58.05;31.38;;;5.40;99.90;;;;;;5051395;28;20029;-91
2022/12/21 00:53:58;;;;;;;62.38;32.63;;;5.50;99.90;;;;;;5028905;28;20033;-91
2022/12/21 00:56:24;;;;;;;69.95;36.60;;;5.50;99.90;;;;;;5050916;28;20044;-90
2022/12/21 00:58:51;;;;;;;58.55;32.38;;;5.50;99.90;;;;;;5059578;28;20030;-91
2022/12/21 01:01:45;;;;;;;66.10;33.00;;;5.50;99.90;;;;;;5050221;28;20074;-91
2022/12/21 01:04:10;;;;;;;52.65;27.85;;;5.60;99.90;;;;;;5038106;28;20052;-91
2022/12/21 01:06:36;;;;;;;52.05;26.65;;;5.70;99.90;;;;;;5048065;28;20059;-91
2022/12/21 01:09:06;;;;;;;43.22;25.13;;;5.80;99.90;;;;;;5048129;28;20021;-91
2022/12/21 01:11:33;;;;;;;58.00;28.45;;;5.90;99.90;;;;;;5071663;28;20284;-92
2022/12/21 01:13:59;;;;;;;39.78;24.08;;;6.00;99.90;;;;;;5038749;28;20557;-91
2022/12/21 01:16:31;;;;;;;53.22;26.70;;;6.10;99.90;;;;;;5055440;28;20041;-92
2022/12/21 01:19:00;;;;;;;51.67;24.52;;;6.10;99.90;;;;;;5050672;28;20044;-92
2022/12/21 01:21:28;;;;;;;100.53;33.85;;;6.20;99.90;;;;;;5055461;28;20392;-91
2022/12/21 01:27:16;;;;;;;50.83;29.73;;;6.20;99.90;;;;;;5053996;28;20108;-92
2022/12/21 01:29:42;;;;;;;51.33;28.58;;;6.10;99.90;;;;;;5038839;28;20452;-92
2022/12/21 01:32:07;;;;;;;50.55;32.22;;;6.00;99.90;;;;;;5055163;28;20021;-92
2022/12/21 01:34:33;;;;;;;54.28;32.55;;;6.00;99.90;;;;;;5058850;28;20037;-92
2022/12/21 01:36:59;;;;;;;58.92;34.42;;;5.90;99.90;;;;;;5034781;28;20020;-91
2022/12/21 01:39:29;;;;;;;60.78;35.15;;;5.70;99.90;;;;;;5054353;28;20040;-92
2022/12/21 01:41:58;;;;;;;61.67;34.47;;;5.60;99.90;;;;;;5037924;28;20032;-92
2022/12/21 01:44:55;;;;;;;63.22;34.22;;;5.50;99.90;;;;;;5055109;28;20021;-92
2022/12/21 01:47:34;;;;;;;63.78;36.05;;;5.60;99.90;;;;;;5035382;28;20135;-92
2022/12/21 01:50:06;;;;;;;65.20;34.38;;;5.50;99.90;;;;;;5055342;28;20029;-91
2022/12/21 01:52:32;;;;;;;63.17;35.42;;;5.50;99.90;;;;;;5038323;28;20036;-91
2022/12/21 01:55:02;;;;;;;64.32;35.95;;;5.60;99.90;;;;;;5055212;28;20036;-92
2022/12/21 01:57:32;;;;;;;64.93;36.97;;;5.50;99.90;;;;;;5038431;28;20041;-92
2022/12/21 02:00:00;;;;;;;61.67;35.83;;;5.50;99.90;;;;;;5055311;28;20392;-92
2022/12/21 02:02:32;;;;;;;68.68;37.70;;;5.60;99.90;;;;;;5055675;28;20626;-92
2022/12/21 02:05:25;;;;;;;74.78;38.35;;;5.60;99.90;;;;;;5050363;28;20025;-92
2022/12/21 02:07:53;;;;;;;63.30;34.38;;;5.60;99.90;;;;;;5023781;28;20037;-91
2022/12/21 02:10:19;;;;;;;61.83;35.63;;;5.50;99.90;;;;;;5071638;28;20032;-91
2022/12/21 02:12:47;;;;;;;66.13;35.95;;;5.60;99.90;;;;;;5038371;28;20029;-92
2022/12/21 02:15:13;;;;;;;64.97;36.30;;;5.60;99.90;;;;;;5038844;28;20028;-92
2022/12/21 02:18:17;;;;;;;62.28;35.10;;;5.70;99.90;;;;;;5055156;28;20094;-92
2022/12/21 02:21:08;;;;;;;62.83;32.97;;;5.50;99.90;;;;;;5054107;28;20032;-92
2022/12/21 02:23:45;;;;;;;64.93;34.10;;;5.50;99.90;;;;;;5038025;28;20048;-92
2022/12/21 02:26:44;;;;;;;81.18;36.55;;;5.50;99.90;;;;;;5038574;28;20074;-92
2022/12/21 02:29:47;;;;;;;147.23;38.47;;;5.50;99.90;;;;;;5054317;28;20025;-92
2022/12/21 02:33:07;;;;;;;140.32;38.58;;;5.40;99.90;;;;;;5055817;28;20457;-91
2022/12/21 02:35:57;;;;;;;121.40;36.78;;;5.40;99.90;;;;;;4997133;28;20026;-92
2022/12/21 02:38:41;;;;;;;95.30;36.60;;;5.40;99.90;;;;;;5054424;28;20029;-92
2022/12/21 02:41:20;;;;;;;62.40;33.88;;;5.40;99.90;;;;;;5054875;28;20036;-91
2022/12/21 02:44:13;;;;;;;63.72;33.92;;;5.40;99.90;;;;;;5043441;28;20036;-91
2022/12/21 02:47:24;;;;;;;63.53;34.05;;;5.50;99.90;;;;;;5051613;28;20228;-92
2022/12/21 02:50:03;;;;;;;63.72;33.45;;;5.60;99.90;;;;;;5021508;28;20029;-92
2022/12/21 02:53:03;;;;;;;70.63;35.17;;;5.70;99.90;;;;;;5038338;28;20062;-92
2022/12/21 02:55:29;;;;;;;73.47;35.92;;;5.70;99.90;;;;;;5035904;28;20033;-92
2022/12/21 02:58:16;;;;;;;64.65;33.45;;;5.80;99.90;;;;;;5054400;28;20044;-92
2022/12/21 03:00:59;;;;;;;66.28;34.13;;;5.80;99.90;;;;;;5054630;28;20037;-92
2022/12/21 03:03:48;;;;;;;67.28;33.65;;;5.80;99.90;;;;;;5052057;28;20197;-92
2022/12/21 03:06:44;;;;;;;60.92;30.77;;;5.90;99.90;;;;;;5037630;28;20128;-92
2022/12/21 03:09:56;;;;;;;58.45;30.65;;;5.90;99.90;;;;;;5053902;28;20033;-92
2022/12/21 03:12:55;;;;;;;50.85;26.85;;;6.00;99.90;;;;;;5053732;28;20040;-92
2022/12/21 03:15:39;;;;;;;50.65;26.80;;;6.20;99.90;;;;;;5053640;28;20040;-92
2022/12/21 03:18:28;;;;;;;52.92;26.33;;;6.40;99.90;;;;;;5049527;28;20036;-91
2022/12/21 03:21:19;;;;;;;45.17;24.90;;;6.50;99.90;;;;;;5070399;28;20032;-92
2022/12/21 03:24:00;;;;;;;56.05;28.83;;;6.70;99.90;;;;;;5053847;28;20025;-93
2022/12/21 03:26:29;;;;;;;52.80;25.63;;;6.80;99.90;;;;;;5037254;28;20029;-92
2022/12/21 03:28:57;;;;;;;50.53;25.00;;;6.80;99.90;;;;;;5049342;28;20043;-92
2022/12/21 03:31:28;;;;;;;42.88;21.63;;;6.90;99.90;;;;;;5066024;28;20037;-92
2022/12/21 03:34:01;;;;;;;46.28;25.63;;;6.90;99.90;;;;;;5070101;28;20037;-91
2022/12/21 03:37:02;;;;;;;45.90;22.77;;;7.00;99.90;;;;;;5037338;28;20037;-92
2022/12/21 03:39:29;;;;;;;58.00;26.20;;;7.10;99.90;;;;;;5047949;28;20075;-92
2022/12/21 03:42:21;;;;;;;43.25;23.33;;;7.10;99.90;;;;;;5053619;28;20029;-92
2022/12/21 03:44:58;;;;;;;64.07;26.90;;;7.10;99.90;;;;;;5048042;28;20036;-92
2022/12/21 03:47:34;;;;;;;43.63;22.40;;;7.10;99.90;;;;;;5036983;28;20025;-92
2022/12/21 03:50:05;;;;;;;46.28;22.08;;;7.10;99.90;;;;;;5037197;28;20032;-91
2022/12/21 03:52:39;;;;;;;54.00;23.58;;;7.20;99.90;;;;;;5053983;28;20050;-92
2022/12/21 03:55:08;;;;;;;69.03;25.27;;;7.20;99.90;;;;;;5070154;28;20020;-92
2022/12/21 03:57:35;;;;;;;78.60;29.80;;;7.20;99.90;;;;;;5036934;28;20043;-92
2022/12/21 04:00:03;;;;;;;69.88;25.80;;;7.20;99.90;;;;;;5053246;28;20051;-92
2022/12/21 04:02:59;;;;;;;68.60;26.00;;;7.20;99.90;;;;;;5049510;28;20079;-92
2022/12/21 04:05:35;;;;;;;87.30;24.60;;;7.20;99.90;;;;;;5053576;28;20029;-92
2022/12/21 04:08:01;;;;;;;166.88;33.60;;;7.30;99.90;;;;;;5053266;28;20032;-92
2022/12/21 04:10:27;;;;;;;165.35;28.23;;;7.30;99.90;;;;;;5053930;28;20029;-91
2022/12/21 04:12:53;;;;;;;324.05;37.90;;;7.30;99.90;;;;;;5053320;28;20468;-92
2022/12/21 04:15:23;;;;;;;323.33;35.30;;;7.40;99.90;;;;;;5036631;28;20037;-92
2022/12/21 04:17:51;;;;;;;287.02;31.70;;;7.40;99.90;;;;;;5050127;28;20022;-91
2022/12/21 04:20:22;;;;;;;480.15;44.15;;;7.40;99.90;;;;;;5050815;28;20479;-92
2022/12/21 04:28:30;;;;;;;397.67;37.60;;;7.40;99.90;;;;;;5070337;28;20083;-92
2022/12/21 04:30:56;;;;;;;427.15;34.33;;;7.40;99.90;;;;;;5063775;28;20029;-91
2022/12/21 04:33:23;;;;;;;583.22;43.25;;;7.50;99.90;;;;;;5053241;28;20033;-92
2022/12/21 04:38:37;;;;;;;343.90;33.83;;;7.40;99.90;;;;;;5054441;28;20055;-92
2022/12/21 04:41:03;;;;;;;211.40;27.17;;;7.40;99.90;;;;;;5053599;28;20540;-93
2022/12/21 04:43:28;;;;;;;174.25;27.23;;;7.40;99.90;;;;;;5054629;28;20102;-92
2022/12/21 04:46:02;;;;;;;168.30;28.70;;;7.40;99.90;;;;;;5074611;28;20036;-92
2022/12/21 04:48:28;;;;;;;260.90;31.02;;;7.50;99.90;;;;;;5057659;28;20131;-92
2022/12/21 04:50:54;;;;;;;282.85;33.10;;;7.50;99.90;;;;;;5057094;28;20028;-92
2022/12/21 04:53:21;;;;;;;348.27;38.38;;;7.60;99.90;;;;;;5057148;28;20031;-92
2022/12/21 04:55:47;;;;;;;598.83;52.95;;;7.50;99.90;;;;;;5057338;28;20021;-92
2022/12/21 04:58:12;;;;;;;576.95;50.92;;;7.50;99.90;;;;;;5074556;28;20044;-92
2022/12/21 05:00:38;;;;;;;613.72;47.95;;;7.50;99.90;;;;;;5041345;28;20048;-90
2022/12/21 05:03:04;;;;;;;676.90;51.58;;;7.50;99.90;;;;;;5057878;28;20079;-92
2022/12/21 05:05:30;;;;;;;812.40;56.42;;;7.60;99.90;;;;;;5040690;28;20503;-91
2022/12/21 05:07:56;;;;;;;688.15;52.47;;;7.60;99.90;;;;;;5057077;28;20029;-91
2022/12/21 05:10:22;;;;;;;760.78;54.88;;;7.60;99.90;;;;;;5073842;28;20043;-91
2022/12/21 05:12:48;;;;;;;611.45;48.58;;;7.60;99.90;;;;;;5074307;28;20017;-92
2022/12/21 05:15:16;;;;;;;573.15;41.97;;;7.60;99.90;;;;;;5039856;28;20040;-90
2022/12/21 05:17:42;;;;;;;459.50;37.22;;;7.60;99.90;;;;;;5057143;28;20028;-91
2022/12/21 05:20:20;;;;;;;748.95;47.47;;;7.60;99.90;;;;;;5057267;28;20029;-92
2022/12/21 05:22:46;;;;;;;725.80;50.53;;;7.60;99.90;;;;;;5061496;28;20037;-92
2022/12/21 05:25:12;;;;;;;638.38;45.42;;;7.60;99.90;;;;;;5051799;28;20376;-91
2022/12/21 05:27:38;;;;;;;592.90;40.03;;;7.60;99.90;;;;;;5039891;28;20033;-92
2022/12/21 05:30:04;;;;;;;388.85;32.85;;;7.60;99.90;;;;;;5056277;28;20036;-91
2022/12/21 05:32:30;;;;;;;540.55;38.92;;;7.60;99.90;;;;;;5039799;28;20495;-93
2022/12/21 05:34:56;;;;;;;501.98;35.80;;;7.60;99.90;;;;;;5055825;28;20024;-91
2022/12/21 05:37:21;;;;;;;505.65;34.72;;;7.70;99.90;;;;;;5055760;28;20067;-91
2022/12/21 05:39:47;;;;;;;336.70;29.95;;;7.70;99.90;;;;;;5056387;28;20036;-91
2022/12/21 05:42:12;;;;;;;502.15;36.45;;;7.70;99.90;;;;;;5055890;28;20084;-91
2022/12/21 05:44:38;;;;;;;526.65;38.58;;;7.70;99.90;;;;;;5037912;28;20048;-92
2022/12/21 05:47:04;;;;;;;341.73;27.55;;;7.80;99.90;;;;;;5055894;28;20079;-90
2022/12/21 05:49:29;;;;;;;441.02;34.35;;;7.70;99.90;;;;;;5062210;28;20063;-91
2022/12/21 05:51:55;;;;;;;369.77;33.97;;;7.70;99.90;;;;;;5055796;28;20029;-90
2022/12/21 05:54:21;;;;;;;614.97;46.30;;;7.80;99.90;;;;;;5055782;28;20025;-91
2022/12/21 05:56:46;;;;;;;694.63;51.63;;;7.80;99.90;;;;;;5055473;28;20029;-91
2022/12/21 05:59:12;;;;;;;686.58;54.00;;;7.80;99.90;;;;;;5056578;28;20021;-91
2022/12/21 06:01:37;;;;;;;777.72;76.47;;;7.70;99.90;;;;;;5055289;28;20108;-92
2022/12/21 06:04:03;;;;;;;737.55;73.50;;;7.70;99.90;;;;;;5048311;28;20049;-91
2022/12/21 06:06:29;;;;;;;887.90;71.22;;;7.70;99.90;;;;;;5045631;28;20029;-91
2022/12/21 06:08:54;;;;;;;586.33;45.85;;;7.80;99.90;;;;;;5048343;28;20028;-90
2022/12/21 06:11:23;;;;;;;781.15;59.72;;;7.80;99.90;;;;;;5051778;28;20103;-91
2022/12/21 06:13:50;;;;;;;745.17;57.25;;;7.80;99.90;;;;;;5044540;28;20127;-90
2022/12/21 06:16:20;;;;;;;683.75;52.38;;;7.80;99.90;;;;;;5026605;28;20113;-91
2022/12/21 06:18:47;;;;;;;477.77;39.80;;;7.90;99.90;;;;;;5050545;28;20362;-90
2022/12/21 06:21:14;;;;;;;669.28;52.80;;;7.80;99.90;;;;;;5053634;28;20033;-91
2022/12/21 06:23:40;;;;;;;387.92;36.10;;;7.80;99.90;;;;;;5047530;28;20022;-90
2022/12/21 06:26:08;;;;;;;695.05;55.30;;;7.90;99.90;;;;;;5040505;28;20091;-91
2022/12/21 06:28:35;;;;;;;515.08;48.25;;;7.90;99.90;;;;;;5053463;28;20079;-90
2022/12/21 06:31:17;;;;;;;854.45;66.25;;;7.90;99.90;;;;;;5063865;28;20036;-91
2022/12/21 06:33:43;;;;;;;650.28;56.33;;;7.90;99.90;;;;;;5047742;28;20036;-91
2022/12/21 06:36:10;;;;;;;452.48;39.60;;;7.90;99.90;;;;;;5050006;28;20044;-91
2022/12/21 06:38:37;;;;;;;657.83;54.70;;;7.90;99.90;;;;;;5051625;28;20018;-90
2022/12/21 06:41:06;;;;;;;514.05;46.67;;;7.90;99.90;;;;;;5049380;28;20029;-91
2022/12/21 06:43:32;;;;;;;107.15;28.92;;;7.90;99.90;;;;;;5034378;28;20060;-91
2022/12/21 06:46:01;;;;;;;144.73;31.23;;;7.90;99.90;;;;;;5034993;28;20029;-91
2022/12/21 06:48:29;;;;;;;226.55;36.40;;;8.00;99.90;;;;;;5037730;28;20033;-91
2022/12/21 06:51:03;;;;;;;108.03;30.55;;;8.00;99.90;;;;;;5046533;28;20490;-90
2022/12/21 06:53:35;;;;;;;132.48;31.48;;;8.00;99.90;;;;;;5046605;28;20081;-90
2022/12/21 06:56:02;;;;;;;135.05;31.30;;;8.00;99.90;;;;;;5050053;28;20022;-91
2022/12/21 06:58:28;;;;;;;168.63;30.90;;;8.00;99.90;;;;;;5052268;28;20033;-91
2022/12/21 07:00:54;;;;;;;86.05;27.33;;;8.00;99.90;;;;;;5048993;28;20353;-91
2022/12/21 07:03:20;;;;;;;94.15;26.70;;;8.00;99.90;;;;;;5050538;28;20040;-92
2022/12/21 07:05:46;;;;;;;61.88;25.67;;;8.00;99.90;;;;;;5053090;28;20112;-91
2022/12/21 07:08:12;;;;;;;62.95;26.15;;;8.00;99.90;;;;;;5048027;28;20029;-91
2022/12/21 07:10:38;;;;;;;68.45;25.42;;;8.00;99.90;;;;;;5049671;28;20029;-92
2022/12/21 07:13:04;;;;;;;73.72;27.33;;;8.00;99.90;;;;;;5033241;28;20025;-91
2022/12/21 07:15:34;;;;;;;61.90;24.63;;;8.00;99.90;;;;;;5050325;28;20067;-92
2022/12/21 07:18:00;;;;;;;107.88;31.85;;;8.00;99.90;;;;;;5056172;28;20036;-92
2022/12/21 07:20:26;;;;;;;103.90;29.83;;;8.00;99.90;;;;;;5046057;28;20033;-92
2022/12/21 07:22:51;;;;;;;95.60;26.83;;;8.00;99.90;;;;;;5066090;28;20512;-91
2022/12/21 07:25:17;;;;;;;99.78;26.38;;;8.00;99.90;;;;;;5049151;28;20018;-92
2022/12/21 07:27:43;;;;;;;114.97;27.92;;;8.00;99.90;;;;;;5051013;28;20099;-92
2022/12/21 07:30:09;;;;;;;55.92;20.40;;;8.00;99.90;;;;;;5049431;28;20481;-92
2022/12/21 07:32:35;;;;;;;44.65;18.90;;;8.00;99.90;;;;;;5052249;28;20037;-92
2022/12/21 07:35:01;;;;;;;38.08;16.88;;;8.00;99.90;;;;;;5041455;28;20032;-93
2022/12/21 07:37:27;;;;;;;31.38;16.60;;;8.00;99.90;;;;;;5052073;28;20407;-92
2022/12/21 07:39:52;;;;;;;34.13;15.38;;;8.00;99.90;;;;;;5049267;28;20432;-93
2022/12/21 07:42:18;;;;;;;36.97;15.60;;;8.00;99.90;;;;;;5048724;28;20112;-91
2022/12/21 07:44:59;;;;;;;34.70;16.35;;;8.00;99.90;;;;;;5051228;28;20017;-92
2022/12/21 07:47:32;;;;;;;30.08;15.02;;;8.00;99.90;;;;;;5051122;28;20040;-92
2022/12/21 07:49:58;;;;;;;26.25;14.32;;;8.10;99.90;;;;;;5026696;28;20025;-92
2022/12/21 07:52:23;;;;;;;25.45;15.20;;;8.10;99.90;;;;;;5049562;28;20447;-93
2022/12/21 07:54:49;;;;;;;25.77;14.30;;;8.00;99.90;;;;;;5045789;28;20133;-92
2022/12/21 07:57:15;;;;;;;20.55;12.48;;;8.10;99.90;;;;;;5049383;28;20033;-92
2022/12/21 07:59:41;;;;;;;29.88;16.05;;;8.10;99.90;;;;;;5059138;28;20115;-92
2022/12/21 08:02:09;;;;;;;34.55;17.02;;;8.10;99.90;;;;;;5047278;28;20088;-92
2022/12/21 08:04:35;;;;;;;28.70;13.48;;;8.10;99.90;;;;;;5048265;28;20082;-91
2022/12/21 08:07:01;;;;;;;41.47;22.27;;;8.10;99.90;;;;;;5031567;28;20469;-93
2022/12/21 08:09:26;;;;;;;30.17;14.05;;;8.10;99.90;;;;;;5060628;28;20036;-92
2022/12/21 08:11:52;;;;;;;23.58;13.30;;;8.10;99.90;;;;;;5040285;28;20032;-92
2022/12/21 08:14:18;;;;;;;24.95;13.88;;;8.10;99.90;;;;;;5048426;28;20029;-93
2022/12/21 08:16:44;;;;;;;24.48;12.85;;;8.10;99.90;;;;;;5043326;28;20048;-92
2022/12/21 08:19:09;;;;;;;25.90;15.55;;;8.10;99.90;;;;;;5048669;28;20029;-92
2022/12/21 08:21:35;;;;;;;37.50;18.85;;;8.10;99.90;;;;;;5045305;28;20033;-93
2022/12/21 08:24:01;;;;;;;37.22;18.52;;;8.10;99.90;;;;;;5022462;28;20021;-92
2022/12/21 08:26:26;;;;;;;38.35;19.15;;;8.10;99.90;;;;;;5049650;28;20037;-93
2022/12/21 08:28:52;;;;;;;38.50;21.90;;;8.10;99.90;;;;;;5060167;28;20027;-93
2022/12/21 08:31:19;;;;;;;44.38;24.40;;;8.10;99.90;;;;;;5064487;28;20044;-93
2022/12/21 08:33:45;;;;;;;49.90;24.40;;;8.10;99.90;;;;;;5041186;28;20024;-93
2022/12/21 08:36:17;;;;;;;37.03;21.90;;;8.10;99.90;;;;;;5040246;28;20469;-92
2022/12/21 08:38:44;;;;;;;47.83;23.85;;;8.10;99.90;;;;;;5049160;28;20033;-93
2022/12/21 08:41:10;;;;;;;40.00;23.08;;;8.10;99.90;;;;;;5048269;28;20550;-92
2022/12/21 08:43:36;;;;;;;42.33;23.15;;;8.10;99.90;;;;;;5050272;28;20064;-92
2022/12/21 08:46:04;;;;;;;47.92;24.25;;;8.10;99.90;;;;;;5060899;28;20017;-93
2022/12/21 08:48:30;;;;;;;62.10;24.83;;;8.10;99.90;;;;;;5047242;28;20469;-93
2022/12/21 08:50:56;;;;;;;56.80;26.13;;;8.10;99.90;;;;;;5049660;28;20029;-92
2022/12/21 08:53:22;;;;;;;72.30;26.40;;;8.10;99.90;;;;;;5045900;28;20026;-92
2022/12/21 08:55:48;;;;;;;87.00;29.20;;;8.10;99.90;;;;;;5052438;28;20017;-93
2022/12/21 08:58:14;;;;;;;470.45;52.83;;;8.10;99.90;;;;;;5043558;28;20060;-92
2022/12/21 09:00:42;;;;;;;302.27;38.28;;;8.10;99.90;;;;;;5051038;28;20029;-92
2022/12/21 09:03:08;;;;;;;309.75;38.85;;;8.10;99.90;;;;;;5030519;28;20025;-92
2022/12/21 09:05:34;;;;;;;648.80;58.83;;;8.00;99.90;;;;;;5032042;28;20492;-92
2022/12/21 09:08:01;;;;;;;574.50;56.92;;;8.00;99.90;;;;;;5045551;28;20021;-92
2022/12/21 09:10:28;;;;;;;725.25;66.03;;;8.10;99.90;;;;;;5053619;28;20064;-92
2022/12/21 09:12:55;;;;;;;725.00;68.72;;;8.10;99.90;;;;;;5045424;28;20039;-92
2022/12/21 09:15:21;;;;;;;778.78;67.93;;;8.10;99.90;;;;;;5051278;28;20029;-92
2022/12/21 09:17:56;;;;;;;689.58;58.72;;;8.10;99.90;;;;;;5030533;28;20029;-92
2022/12/21 09:20:22;;;;;;;621.28;56.75;;;8.10;99.90;;;;;;5048093;28;20032;-92
2022/12/21 09:22:48;;;;;;;942.40;77.95;;;8.10;99.90;;;;;;5047792;28;20075;-92
2022/12/21 09:25:14;;;;;;;753.72;67.85;;;8.10;99.90;;;;;;5047659;28;20025;-91
2022/12/21 09:27:40;;;;;;;622.33;57.13;;;8.10;99.90;;;;;;5048159;28;20465;-92
2022/12/21 09:30:06;;;;;;;639.75;62.53;;;8.10;99.90;;;;;;5049525;28;20059;-92
2022/12/21 09:32:33;;;;;;;512.78;57.65;;;8.10;99.90;;;;;;5047480;28;20488;-92
2022/12/21 09:34:59;;;;;;;513.67;58.95;;;8.10;99.90;;;;;;5038990;28;20028;-92
2022/12/21 09:37:24;;;;;;;570.17;59.50;;;8.10;99.90;;;;;;5049089;28;20033;-92
2022/12/21 09:39:50;;;;;;;503.23;61.72;;;8.10;99.90;;;;;;5048566;28;20068;-92
2022/12/21 09:42:41;;;;;;;511.20;54.33;;;8.10;99.90;;;;;;5039997;28;20032;-92
2022/12/21 09:45:13;;;;;;;597.00;64.20;;;8.10;99.90;;;;;;5049279;28;20398;-92
2022/12/21 09:47:57;;;;;;;292.13;46.65;;;8.20;99.90;;;;;;5075942;28;20021;-91
2022/12/21 09:50:30;;;;;;;288.95;43.10;;;8.20;99.90;;;;;;5054264;28;20033;-92
2022/12/21 09:53:11;;;;;;;302.70;46.10;;;8.10;99.90;;;;;;5062421;28;20033;-92
2022/12/21 09:55:41;;;;;;;;;;;8.20;99.90;;;;;;5072983;28;20519;-92
2022/12/21 09:58:17;;;;;;;84.35;36.75;;;8.10;99.90;;;;;;5078034;28;19916;-93
2022/12/21 10:00:47;;;;;;;90.90;38.05;;;8.20;99.90;;;;;;5072924;28;20523;-91
2022/12/21 10:03:31;;;;;;;94.45;36.53;;;8.20;99.90;;;;;;5072873;28;20032;-92
2022/12/21 10:06:10;;;;;;;257.95;45.13;;;8.20;99.90;;;;;;5048918;28;20079;-91
2022/12/21 10:08:52;;;;;;;339.92;51.13;;;8.30;99.90;;;;;;5039577;28;20021;-92
2022/12/21 10:11:53;;;;;;;181.70;42.05;;;8.20;99.90;;;;;;5066166;28;20457;-92
2022/12/21 10:14:43;;;;;;;128.27;36.63;;;8.20;99.90;;;;;;5055044;28;20051;-92
2022/12/21 10:17:24;;;;;;;117.60;37.83;;;8.20;99.90;;;;;;5059407;28;20470;-92
2022/12/21 10:20:11;;;;;;;68.20;32.40;;;8.20;99.90;;;;;;5057341;28;20093;-93
2022/12/21 10:22:41;;;;;;;75.30;33.88;;;8.30;99.90;;;;;;5040697;28;20374;-92
2022/12/21 10:25:22;;;;;;;77.13;35.70;;;8.30;99.90;;;;;;5049580;28;20683;-91
2022/12/21 10:28:04;;;;;;;120.97;38.88;;;8.20;99.90;;;;;;5056575;28;20025;-92
2022/12/21 10:30:31;;;;;;;87.55;36.25;;;8.20;99.90;;;;;;5055554;28;20483;-91
2022/12/21 10:32:59;;;;;;;86.88;37.55;;;8.20;99.90;;;;;;5055293;28;20036;-92
2022/12/21 10:35:38;;;;;;;84.55;35.63;;;8.30;99.90;;;;;;5055300;28;20037;-91
2022/12/21 10:38:14;;;;;;;64.03;34.72;;;8.30;99.90;;;;;;5065684;28;20142;-92
2022/12/21 10:40:43;;;;;;;64.35;34.30;;;8.30;99.90;;;;;;5051945;28;20033;-92
2022/12/21 10:43:11;;;;;;;54.72;29.17;;;8.30;99.90;;;;;;5037655;28;20456;-92
2022/12/21 10:45:37;;;;;;;65.82;35.17;;;8.30;99.90;;;;;;5038496;28;20098;-92
2022/12/21 10:48:03;;;;;;;51.85;30.17;;;8.30;99.90;;;;;;5046186;28;20468;-92
2022/12/21 10:50:34;;;;;;;60.33;30.02;;;8.40;99.90;;;;;;5047644;28;20026;-92
2022/12/21 10:53:15;;;;;;;59.10;31.90;;;8.30;99.90;;;;;;5035259;28;20116;-92
2022/12/21 10:55:43;;;;;;;64.13;32.53;;;8.30;99.90;;;;;;5032566;28;20103;-91
2022/12/21 10:58:16;;;;;;;65.13;33.03;;;8.30;99.90;;;;;;5054863;28;20024;-91
2022/12/21 11:00:56;;;;;;;63.03;34.08;;;8.30;99.90;;;;;;5040284;28;20065;-91
2022/12/21 11:03:26;;;;;;;75.95;36.80;;;8.40;99.90;;;;;;5022619;28;20025;-91
2022/12/21 11:05:52;;;;;;;61.25;33.28;;;8.40;99.90;;;;;;5048980;28;20033;-92
2022/12/21 11:08:30;;;;;;;71.03;35.97;;;8.40;99.90;;;;;;5064074;28;20386;-91
2022/12/21 11:10:58;;;;;;;57.53;31.45;;;8.40;99.90;;;;;;5034781;28;20020;-91
2022/12/21 11:13:26;;;;;;;54.22;31.45;;;8.40;99.90;;;;;;5033725;28;20035;-91
2022/12/21 11:15:54;;;;;;;67.10;34.25;;;8.50;99.90;;;;;;5034391;28;20033;-91
2022/12/21 11:18:41;;;;;;;59.55;28.83;;;8.40;99.90;;;;;;5031640;28;20029;-91
2022/12/21 11:21:24;;;;;;;57.53;29.17;;;8.40;99.90;;;;;;5022314;28;20061;-91
2022/12/21 11:24:13;;;;;;;50.80;27.05;;;8.50;99.90;;;;;;5037120;28;20086;-91
2022/12/21 11:26:46;;;;;;;57.05;31.45;;;8.50;99.90;;;;;;5017329;28;20033;-91
2022/12/21 11:29:27;;;;;;;61.78;32.15;;;8.50;99.90;;;;;;5028890;28;20031;-92
2022/12/21 11:31:55;;;;;;;66.85;34.15;;;8.50;99.90;;;;;;5022518;28;20028;-92
2022/12/21 11:34:23;;;;;;;61.05;30.85;;;8.40;99.90;;;;;;5044986;28;20033;-93
2022/12/21 11:36:59;;;;;;;52.33;29.98;;;8.40;99.90;;;;;;5036092;28;20036;-91
2022/12/21 11:39:25;;;;;;;48.45;29.30;;;8.40;99.90;;;;;;5045981;28;20061;-92
2022/12/21 11:41:52;;;;;;;53.22;27.45;;;8.40;99.90;;;;;;5038277;28;20024;-93
2022/12/21 11:44:28;;;;;;;45.20;24.95;;;8.40;99.90;;;;;;5048344;28;20472;-91
2022/12/21 11:47:15;;;;;;;52.83;29.25;;;8.40;99.90;;;;;;5025099;28;20025;-92
2022/12/21 11:50:21;;;;;;;73.13;33.83;;;8.50;99.90;;;;;;5064530;28;20101;-91
2022/12/21 11:53:02;;;;;;;67.80;33.88;;;8.40;99.90;;;;;;5051228;28;20029;-92
2022/12/21 11:55:34;;;;;;;58.83;32.73;;;8.40;99.90;;;;;;5053658;28;20033;-92
2022/12/21 11:58:27;;;;;;;64.35;33.75;;;8.40;99.90;;;;;;5053610;28;20064;-91
2022/12/21 12:01:04;;;;;;;68.53;33.65;;;8.40;99.90;;;;;;5053699;28;20029;-92
2022/12/21 12:03:49;;;;;;;60.65;33.35;;;8.40;99.90;;;;;;5053760;28;20120;-91
2022/12/21 12:06:39;;;;;;;86.05;33.95;;;8.50;99.90;;;;;;5052751;28;20035;-91
2022/12/21 12:09:44;;;;;;;68.72;36.30;;;8.40;99.90;;;;;;5053256;28;20028;-92
2022/12/21 12:12:09;;;;;;;90.45;38.90;;;8.40;99.90;;;;;;5065617;28;20080;-88
2022/12/21 12:15:06;;;;;;;86.03;33.58;;;8.40;99.90;;;;;;5052766;28;20623;-92
2022/12/21 12:18:07;;;;;;;163.30;41.42;;;8.40;99.90;;;;;;5053683;28;20096;-92
2022/12/21 12:20:51;;;;;;;97.07;39.40;;;8.40;99.90;;;;;;5036392;28;20037;-91
2022/12/21 12:23:23;;;;;;;65.72;32.58;;;8.40;99.90;;;;;;5048590;28;20044;-92
2022/12/21 12:26:15;;;;;;;65.07;33.97;;;8.40;99.90;;;;;;5052755;28;20028;-92
2022/12/21 12:28:49;;;;;;;162.68;40.53;;;8.40;99.90;;;;;;5036681;28;20419;-91
2022/12/21 12:31:24;;;;;;;164.10;40.45;;;8.40;99.90;;;;;;5053231;28;20029;-92
2022/12/21 12:34:09;;;;;;;70.65;35.15;;;8.40;99.90;;;;;;5041970;28;20025;-92
2022/12/21 12:36:50;;;;;;;68.63;34.92;;;8.50;99.90;;;;;;5036737;28;20029;-93
2022/12/21 12:39:45;;;;;;;77.75;38.13;;;8.50;99.90;;;;;;5052809;28;20033;-92
2022/12/21 12:42:25;;;;;;;59.83;33.47;;;8.50;99.90;;;;;;5064680;28;20158;-92
2022/12/21 12:45:17;;;;;;;61.70;31.73;;;8.50;99.90;;;;;;5052789;28;20107;-92
2022/12/21 12:47:47;;;;;;;;;;;8.50;99.90;;;;;;5054213;28;20333;-93
2022/12/21 12:50:34;;;;;;;65.50;33.35;;;8.50;99.90;;;;;;5069989;28;20352;-92
2022/12/21 12:53:14;;;;;;;95.43;34.22;;;8.50;99.90;;;;;;5057180;28;20025;-92
2022/12/21 12:55:50;;;;;;;69.17;35.70;;;8.50;99.90;;;;;;5036379;28;20472;-93
2022/12/21 12:58:34;;;;;;;71.82;35.80;;;8.50;99.90;;;;;;5052752;28;20036;-92
2022/12/21 13:01:37;;;;;;;65.93;34.38;;;8.60;99.90;;;;;;5057640;28;20112;-92
2022/12/21 13:04:15;;;;;;;60.58;32.20;;;8.60;99.90;;;;;;5042424;28;20078;-92
2022/12/21 13:06:51;;;;;;;57.38;31.25;;;8.50;99.90;;;;;;5040590;28;20029;-92
2022/12/21 13:09:28;;;;;;;51.45;30.60;;;8.60;99.90;;;;;;5040370;28;20036;-93
2022/12/21 13:12:28;;;;;;;70.85;34.38;;;8.60;99.90;;;;;;5049034;28;20032;-92
2022/12/21 13:15:03;;;;;;;87.15;36.03;;;8.60;99.90;;;;;;5066113;28;20468;-91